Time;durP1;ratioP1;P1;durP2;ratioP2;P2;SDS_P1;SDS_P2;PMS_P1;PMS_P2;Temp;Humidity;BMP_temperature;BMP_pressure;BME280_temperature;BME280_humidity;BME280_pressure;Samples;Min_cycle;Max_cycle;Signal;HPM_P1;HPM_P2
2023/06/21 00:01:40;;;;;;;;;;;26.50;55.50;;;;;;5054238;28;19925;-60
2023/06/21 00:04:08;;;;;;;;;;;26.60;55.60;;;;;;5054170;28;19924;-60
2023/06/21 00:06:37;;;;;;;;;;;26.60;55.50;;;;;;5086144;28;19921;-60
2023/06/21 00:09:04;;;;;;;;;;;26.60;55.60;;;;;;5054002;28;19920;-60
2023/06/21 00:11:31;;;;;;;;;;;26.50;55.50;;;;;;5053808;28;19921;-60
2023/06/21 00:13:58;;;;;;;;;;;26.50;55.50;;;;;;5053885;28;20026;-60
2023/06/21 00:16:25;;;;;;;;;;;26.50;55.50;;;;;;5054299;28;19939;-60
2023/06/21 00:18:52;;;;;;;;;;;26.50;55.60;;;;;;5054149;28;19924;-60
2023/06/21 00:21:19;;;;;;;;;;;26.50;55.60;;;;;;5053786;28;19947;-60
2023/06/21 00:23:46;;;;;;;;;;;26.50;55.50;;;;;;5053892;28;19935;-60
2023/06/21 00:26:13;;;;;;;;;;;26.50;55.60;;;;;;5053222;28;19920;-60
2023/06/21 00:28:40;;;;;;;;;;;26.50;55.60;;;;;;5053630;28;19921;-60
2023/06/21 00:31:10;;;;;;;;;;;26.50;55.60;;;;;;5053989;28;19931;-60
2023/06/21 00:33:38;;;;;;;;;;;26.50;55.60;;;;;;5053742;28;19984;-60
2023/06/21 00:36:05;;;;;;;;;;;26.50;55.60;;;;;;5053687;28;19942;-60
2023/06/21 00:38:35;;;;;;;;;;;26.50;55.60;;;;;;5053313;28;19990;-60
2023/06/21 00:41:04;;;;;;;;;;;26.50;55.60;;;;;;5053722;28;19967;-60
2023/06/21 00:43:31;;;;;;;;;;;26.50;55.60;;;;;;5053393;28;19924;-60
2023/06/21 00:45:59;;;;;;;;;;;26.50;55.60;;;;;;5052589;28;19927;-60
2023/06/21 00:48:28;;;;;;;;;;;26.50;55.60;;;;;;5053336;28;19920;-60
2023/06/21 00:50:56;;;;;;;;;;;26.40;55.50;;;;;;5085185;28;19932;-60
2023/06/21 00:53:24;;;;;;;;;;;26.50;55.60;;;;;;5053605;28;19943;-60
2023/06/21 00:55:51;;;;;;;;;;;26.50;55.60;;;;;;5053290;28;20289;-60
2023/06/21 00:58:20;;;;;;;;;;;26.40;55.50;;;;;;5052865;28;19971;-60
2023/06/21 01:00:49;;;;;;;;;;;26.40;55.50;;;;;;5053024;28;20293;-60
2023/06/21 01:03:17;;;;;;;;;;;26.40;55.50;;;;;;5053408;28;19924;-60
2023/06/21 01:05:55;;;;;;;;;;;26.40;55.60;;;;;;5052839;28;20011;-60
2023/06/21 01:08:37;;;;;;;;;;;26.40;55.50;;;;;;5051947;28;19963;-60
2023/06/21 01:11:10;;;;;;;;;;;26.40;55.50;;;;;;5052869;28;19920;-60
2023/06/21 01:13:56;;;;;;;;;;;26.40;55.60;;;;;;5053115;28;19978;-60
2023/06/21 01:16:26;;;;;;;;;;;26.40;55.60;;;;;;5052981;28;20370;-60
2023/06/21 01:18:53;;;;;;;;;;;26.40;55.60;;;;;;5051809;28;19921;-60
2023/06/21 01:21:22;;;;;;;;;;;26.40;55.60;;;;;;5052869;28;20031;-60
2023/06/21 01:24:09;;;;;;;;;;;26.40;55.60;;;;;;5052906;28;19924;-60
2023/06/21 01:26:58;;;;;;;;;;;26.40;55.60;;;;;;5052342;28;19921;-60
2023/06/21 01:29:31;;;;;;;;;;;26.40;55.60;;;;;;5052876;28;19928;-60
2023/06/21 01:31:59;;;;;;;;;;;26.40;55.60;;;;;;5053000;28;19975;-60
2023/06/21 01:34:27;;;;;;;;;;;26.40;55.60;;;;;;5052714;28;19920;-60
2023/06/21 01:36:56;;;;;;;;;;;26.40;55.60;;;;;;5052662;28;19921;-60
2023/06/21 01:39:27;;;;;;;;;;;26.40;55.60;;;;;;5052603;28;19960;-60
2023/06/21 01:41:54;;;;;;;;;;;26.40;55.60;;;;;;5051898;28;20327;-60
2023/06/21 01:44:21;;;;;;;;;;;26.40;55.50;;;;;;5052381;28;20343;-60
2023/06/21 01:46:51;;;;;;;;;;;26.40;55.50;;;;;;5052408;28;19928;-60
2023/06/21 01:49:19;;;;;;;;;;;26.40;55.50;;;;;;5052837;28;19928;-60
2023/06/21 01:51:46;;;;;;;;;;;26.40;55.50;;;;;;5053020;28;19982;-60
2023/06/21 01:54:15;;;;;;;;;;;26.40;55.60;;;;;;5052646;28;19943;-60
2023/06/21 01:56:44;;;;;;;;;;;26.40;55.50;;;;;;5052545;28;20292;-60
2023/06/21 01:59:11;;;;;;;;;;;26.40;55.40;;;;;;5056560;28;19921;-60
2023/06/21 02:01:40;;;;;;;;;;;26.40;55.40;;;;;;5056790;28;19924;-60
2023/06/21 02:04:08;;;;;;;;;;;26.40;55.40;;;;;;5088653;28;19970;-60
2023/06/21 02:06:35;;;;;;;;;;;26.40;56.00;;;;;;5056235;28;19920;-60
2023/06/21 02:09:05;;;;;;;;;;;26.40;55.40;;;;;;5055992;28;19920;-60
2023/06/21 02:11:33;;;;;;;;;;;26.40;55.40;;;;;;5056596;28;20262;-60
2023/06/21 02:14:00;;;;;;;;;;;26.40;55.40;;;;;;5056185;28;19966;-60
2023/06/21 02:16:28;;;;;;;;;;;26.40;55.40;;;;;;5056452;28;20357;-60
2023/06/21 02:18:55;;;;;;;;;;;26.40;55.40;;;;;;5056281;28;20015;-60
2023/06/21 02:21:23;;;;;;;;;;;26.40;55.40;;;;;;5056310;28;19920;-60
2023/06/21 02:23:50;;;;;;;;;;;26.40;55.40;;;;;;5056259;28;19921;-60
2023/06/21 02:26:17;;;;;;;;;;;26.40;55.40;;;;;;5055741;28;19928;-61
2023/06/21 02:28:45;;;;;;;;;;;26.40;55.40;;;;;;5056090;28;19924;-60
2023/06/21 02:31:12;;;;;;;;;;;26.40;55.40;;;;;;5055706;28;19924;-60
2023/06/21 02:33:42;;;;;;;;;;;26.40;55.40;;;;;;5055843;28;19974;-60
2023/06/21 02:36:09;;;;;;;;;;;26.40;55.40;;;;;;5056000;28;20016;-60
2023/06/21 02:38:36;;;;;;;;;;;26.30;55.40;;;;;;5054665;28;19979;-60
2023/06/21 02:41:03;;;;;;;;;;;26.30;55.40;;;;;;5055731;28;19920;-60
2023/06/21 02:43:30;;;;;;;;;;;26.40;55.50;;;;;;5055888;28;19920;-60
2023/06/21 02:45:57;;;;;;;;;;;26.30;55.40;;;;;;5055094;28;19920;-60
2023/06/21 02:48:24;;;;;;;;;;;26.30;55.40;;;;;;5055887;28;19927;-60
2023/06/21 02:50:51;;;;;;;;;;;26.30;55.40;;;;;;5055745;28;19927;-60
2023/06/21 02:53:18;;;;;;;;;;;26.30;55.40;;;;;;5055787;28;19996;-60
2023/06/21 02:55:45;;;;;;;;;;;26.30;55.40;;;;;;5055335;28;19920;-60
2023/06/21 02:58:12;;;;;;;;;;;26.30;55.40;;;;;;5055546;28;19920;-60
2023/06/21 03:00:40;;;;;;;;;;;26.30;55.40;;;;;;5054828;28;19943;-60
2023/06/21 03:03:08;;;;;;;;;;;26.30;55.40;;;;;;5055429;28;20464;-60
2023/06/21 03:05:35;;;;;;;;;;;26.30;55.40;;;;;;5054963;28;20373;-60
2023/06/21 03:08:04;;;;;;;;;;;26.30;55.30;;;;;;5054839;28;20018;-60
2023/06/21 03:10:32;;;;;;;;;;;26.30;55.30;;;;;;5054589;28;19920;-60
2023/06/21 03:12:59;;;;;;;;;;;26.30;55.30;;;;;;5055127;28;19920;-60
2023/06/21 03:15:26;;;;;;;;;;;26.30;55.30;;;;;;5054950;28;20420;-61
2023/06/21 03:17:54;;;;;;;;;;;26.30;55.30;;;;;;5054944;28;20297;-60
2023/06/21 03:20:22;;;;;;;;;;;26.30;55.30;;;;;;5054800;28;19966;-60
2023/06/21 03:22:49;;;;;;;;;;;26.30;55.30;;;;;;5055105;28;20377;-60
2023/06/21 03:25:16;;;;;;;;;;;26.40;55.30;;;;;;5054553;28;20373;-60
2023/06/21 03:27:43;;;;;;;;;;;26.40;55.30;;;;;;5055303;28;19920;-60
2023/06/21 03:30:11;;;;;;;;;;;26.40;55.30;;;;;;5055272;28;19928;-60
2023/06/21 03:32:40;;;;;;;;;;;26.40;55.20;;;;;;5054478;28;19931;-60
2023/06/21 03:35:07;;;;;;;;;;;26.40;55.20;;;;;;5054086;28;20288;-60
2023/06/21 03:37:34;;;;;;;;;;;26.40;55.10;;;;;;5054897;28;20340;-60
2023/06/21 03:40:01;;;;;;;;;;;26.40;55.10;;;;;;5054973;28;19966;-60
2023/06/21 03:42:28;;;;;;;;;;;26.40;55.10;;;;;;5054999;28;19924;-60
2023/06/21 03:44:55;;;;;;;;;;;26.40;55.00;;;;;;5054619;28;19921;-60
2023/06/21 03:47:22;;;;;;;;;;;26.40;55.00;;;;;;5051357;28;19943;-60
2023/06/21 03:49:49;;;;;;;;;;;26.40;55.00;;;;;;5054659;28;19931;-60
2023/06/21 03:52:16;;;;;;;;;;;26.40;55.00;;;;;;5053733;28;20434;-60
2023/06/21 03:54:43;;;;;;;;;;;26.40;54.90;;;;;;5053828;28;19976;-60
2023/06/21 03:57:10;;;;;;;;;;;26.50;55.00;;;;;;5051774;28;19920;-60
2023/06/21 03:59:37;;;;;;;;;;;26.40;54.90;;;;;;5047462;28;19925;-60
2023/06/21 04:02:04;;;;;;;;;;;26.50;54.90;;;;;;5052186;28;20331;-60
2023/06/21 04:04:31;;;;;;;;;;;26.50;54.80;;;;;;5050858;28;19921;-60
2023/06/21 04:06:58;;;;;;;;;;;26.50;54.80;;;;;;5053862;28;19925;-60
2023/06/21 04:09:25;;;;;;;;;;;26.50;54.70;;;;;;5053520;28;19924;-60
2023/06/21 04:11:52;;;;;;;;;;;26.50;54.60;;;;;;5053158;28;19927;-60
2023/06/21 04:14:19;;;;;;;;;;;26.60;54.70;;;;;;5049772;28;19921;-60
2023/06/21 04:16:46;;;;;;;;;;;26.60;54.60;;;;;;5042692;28;19921;-60
2023/06/21 04:19:13;;;;;;;;;;;26.60;54.50;;;;;;5043662;28;19928;-60
2023/06/21 04:21:40;;;;;;;;;;;26.60;54.50;;;;;;5052283;28;20003;-60
2023/06/21 04:24:10;;;;;;;;;;;26.70;54.50;;;;;;5052590;28;20007;-60
2023/06/21 04:26:37;;;;;;;;;;;26.70;54.40;;;;;;5052036;28;19921;-60
2023/06/21 04:29:04;;;;;;;;;;;26.70;54.30;;;;;;5053663;28;19920;-59
2023/06/21 04:31:39;;;;;;;;;;;26.70;54.30;;;;;;5043042;28;19924;-59
2023/06/21 04:34:07;;;;;;;;;;;26.70;54.20;;;;;;5049717;28;19924;-59
2023/06/21 04:36:34;;;;;;;;;;;26.70;54.20;;;;;;5049353;28;20320;-60
2023/06/21 04:39:02;;;;;;;;;;;26.60;54.50;;;;;;5050787;28;19974;-59
2023/06/21 04:41:29;;;;;;;;;;;26.40;55.00;;;;;;5047811;28;19928;-59
2023/06/21 04:43:56;;;;;;;;;;;26.10;55.50;;;;;;5051790;28;19925;-59
2023/06/21 04:46:23;;;;;;;;;;;25.90;56.20;;;;;;5050797;28;20006;-59
2023/06/21 04:48:50;;;;;;;;;;;25.70;56.60;;;;;;5050949;28;19928;-59
2023/06/21 04:51:17;;;;;;;;;;;25.40;56.40;;;;;;5042281;28;19928;-59
2023/06/21 04:53:45;;;;;;;;;;;25.20;56.30;;;;;;5049933;28;19921;-60
2023/06/21 04:56:12;;;;;;;;;;;25.10;56.30;;;;;;5045132;28;19925;-59
2023/06/21 04:58:40;;;;;;;;;;;24.90;56.10;;;;;;5052439;28;19924;-62
2023/06/21 05:01:07;;;;;;;;;;;24.70;56.00;;;;;;5051203;28;20015;-61
2023/06/21 05:03:34;;;;;;;;;;;24.50;56.20;;;;;;5077042;28;19932;-61
2023/06/21 05:06:01;;;;;;;;;;;24.50;56.10;;;;;;5048440;28;19920;-62
2023/06/21 05:08:28;;;;;;;;;;;24.30;56.10;;;;;;5050166;28;19968;-61
2023/06/21 05:10:56;;;;;;;;;;;24.20;56.10;;;;;;5051777;28;20388;-62
2023/06/21 05:13:23;;;;;;;;;;;24.10;55.80;;;;;;5048298;28;19921;-62
2023/06/21 05:15:50;;;;;;;;;;;24.00;55.60;;;;;;5047307;28;19971;-63
2023/06/21 05:18:17;;;;;;;;;;;23.90;55.60;;;;;;5049117;28;19932;-64
2023/06/21 05:20:44;;;;;;;;;;;23.80;55.60;;;;;;5044162;28;19951;-63
2023/06/21 05:23:11;;;;;;;;;;;23.70;55.50;;;;;;5043040;28;20009;-63
2023/06/21 05:25:38;;;;;;;;;;;23.60;55.40;;;;;;5048673;28;20011;-65
2023/06/21 05:28:05;;;;;;;;;;;23.50;55.60;;;;;;5050656;28;19927;-65
2023/06/21 05:30:32;;;;;;;;;;;23.50;55.90;;;;;;5041477;28;19932;-65
2023/06/21 05:33:00;;;;;;;;;;;23.40;56.00;;;;;;5045999;28;20037;-64
2023/06/21 05:35:27;;;;;;;;;;;23.40;56.40;;;;;;5043705;28;19986;-64
2023/06/21 05:37:54;;;;;;;;;;;23.30;56.50;;;;;;5036035;28;19929;-63
2023/06/21 05:40:22;;;;;;;;;;;23.30;56.60;;;;;;5038816;28;19929;-61
2023/06/21 05:42:49;;;;;;;;;;;23.20;56.80;;;;;;5035481;28;19929;-63
2023/06/21 05:45:17;;;;;;;;;;;23.20;57.00;;;;;;5036526;28;19990;-62
2023/06/21 05:47:45;;;;;;;;;;;23.10;57.50;;;;;;5042243;28;19955;-61
2023/06/21 05:50:12;;;;;;;;;;;23.10;58.20;;;;;;5042154;28;19928;-62
2023/06/21 05:52:39;;;;;;;;;;;23.10;58.50;;;;;;5045870;28;19966;-63
2023/06/21 05:55:06;;;;;;;;;;;23.10;55.60;;;;;;5043322;28;20029;-62
2023/06/21 05:57:33;;;;;;;;;;;22.90;55.50;;;;;;5040895;28;19920;-60
2023/06/21 06:00:03;;;;;;;;;;;22.70;55.70;;;;;;5035634;28;19929;-61
2023/06/21 06:02:31;;;;;;;;;;;22.60;57.10;;;;;;5042367;28;19929;-60
2023/06/21 06:04:58;;;;;;;;;;;22.40;57.20;;;;;;5040938;28;19932;-60
2023/06/21 06:07:25;;;;;;;;;;;22.30;57.50;;;;;;5041617;28;19971;-60
2023/06/21 06:09:52;;;;;;;;;;;22.20;57.90;;;;;;5043377;28;19920;-61
2023/06/21 06:12:21;;;;;;;;;;;22.10;58.00;;;;;;5038374;28;19959;-60
2023/06/21 06:14:49;;;;;;;;;;;21.90;58.80;;;;;;5041380;28;19931;-61
2023/06/21 06:17:17;;;;;;;;;;;21.80;59.30;;;;;;5039926;28;19925;-60
2023/06/21 06:19:43;;;;;;;;;;;21.70;59.60;;;;;;5041401;28;19964;-62
2023/06/21 06:22:11;;;;;;;;;;;21.70;60.10;;;;;;5045786;28;19925;-61
2023/06/21 06:24:39;;;;;;;;;;;21.60;60.00;;;;;;5044054;28;20447;-62
2023/06/21 06:27:06;;;;;;;;;;;21.60;60.40;;;;;;5045042;28;21923;-61
2023/06/21 06:29:33;;;;;;;;;;;21.60;60.00;;;;;;5038428;28;20266;-60
2023/06/21 06:32:00;;;;;;;;;;;21.50;60.40;;;;;;5044506;28;19945;-60
2023/06/21 06:34:27;;;;;;;;;;;21.50;61.30;;;;;;5041546;28;20423;-60
2023/06/21 06:36:55;;;;;;;;;;;21.50;61.10;;;;;;5038880;28;19924;-60
2023/06/21 06:39:28;;;;;;;;;;;21.50;60.90;;;;;;5034224;28;19935;-59
2023/06/21 06:41:55;;;;;;;;;;;21.50;61.30;;;;;;5040514;28;19959;-60
2023/06/21 06:44:22;;;;;;;;;;;21.50;60.90;;;;;;5042681;28;19978;-61
2023/06/21 06:46:49;;;;;;;;;;;21.60;61.10;;;;;;5047558;28;20313;-62
2023/06/21 06:49:16;;;;;;;;;;;21.60;61.00;;;;;;5047287;28;19997;-61
2023/06/21 06:51:45;;;;;;;;;;;21.70;61.00;;;;;;5045901;28;19920;-61
2023/06/21 06:54:12;;;;;;;;;;;21.70;60.50;;;;;;5041569;28;20608;-61
2023/06/21 06:56:39;;;;;;;;;;;21.70;60.80;;;;;;5046341;28;20285;-61
2023/06/21 06:59:07;;;;;;;;;;;21.70;60.80;;;;;;5074731;28;19976;-61
2023/06/21 07:01:34;;;;;;;;;;;21.80;60.70;;;;;;5044725;28;19928;-60
2023/06/21 07:04:01;;;;;;;;;;;21.80;60.50;;;;;;5043703;28;19980;-60
2023/06/21 07:06:29;;;;;;;;;;;21.80;60.70;;;;;;5041952;28;20289;-61
2023/06/21 07:08:56;;;;;;;;;;;21.80;60.40;;;;;;5042084;28;20255;-61
2023/06/21 07:11:23;;;;;;;;;;;21.80;60.30;;;;;;5041120;28;19980;-61
2023/06/21 07:13:50;;;;;;;;;;;21.80;60.90;;;;;;5043864;28;19925;-61
2023/06/21 07:16:17;;;;;;;;;;;21.70;60.10;;;;;;5046169;28;20289;-62
2023/06/21 07:18:44;;;;;;;;;;;21.80;60.60;;;;;;5044994;28;19928;-61
2023/06/21 07:21:11;;;;;;;;;;;21.70;60.10;;;;;;5045984;28;19924;-61
2023/06/21 07:23:39;;;;;;;;;;;21.70;60.10;;;;;;5041851;28;19925;-61
2023/06/21 07:26:06;;;;;;;;;;;21.70;60.70;;;;;;5045805;28;20007;-62
2023/06/21 07:28:33;;;;;;;;;;;21.80;60.60;;;;;;5041508;28;19975;-61
2023/06/21 07:31:03;;;;;;;;;;;21.80;61.20;;;;;;5048392;28;19928;-62
2023/06/21 07:33:30;;;;;;;;;;;21.80;60.40;;;;;;5040921;28;22274;-61
2023/06/21 07:35:57;;;;;;;;;;;21.90;60.30;;;;;;5045488;28;19925;-61
2023/06/21 07:38:27;;;;;;;;;;;21.90;60.30;;;;;;5045957;28;20281;-61
2023/06/21 07:40:54;;;;;;;;;;;21.90;59.90;;;;;;5042467;28;19928;-61
2023/06/21 07:43:21;;;;;;;;;;;21.90;60.20;;;;;;5044539;28;19925;-61
2023/06/21 07:45:48;;;;;;;;;;;21.90;60.00;;;;;;5043040;28;20014;-61
2023/06/21 07:48:27;;;;;;;;;;;22.00;59.90;;;;;;5040456;28;19951;-61
2023/06/21 07:50:54;;;;;;;;;;;21.90;59.90;;;;;;5041342;28;19929;-61
2023/06/21 07:53:21;;;;;;;;;;;21.90;59.80;;;;;;5041724;28;19921;-61
2023/06/21 07:55:48;;;;;;;;;;;21.80;59.60;;;;;;5043342;28;19936;-60
2023/06/21 07:58:15;;;;;;;;;;;21.90;59.80;;;;;;5046850;28;19978;-61
2023/06/21 08:00:42;;;;;;;;;;;21.80;59.80;;;;;;5044112;28;19925;-61
2023/06/21 08:03:10;;;;;;;;;;;21.90;59.80;;;;;;5045162;28;19960;-61
2023/06/21 08:05:37;;;;;;;;;;;21.90;60.00;;;;;;5042959;28;19925;-61
2023/06/21 08:08:04;;;;;;;;;;;21.80;59.90;;;;;;5046507;28;19921;-61
2023/06/21 08:10:32;;;;;;;;;;;21.80;59.70;;;;;;5046124;28;19925;-62
2023/06/21 08:12:59;;;;;;;;;;;21.80;59.80;;;;;;5041357;28;19943;-62
2023/06/21 08:15:26;;;;;;;;;;;21.70;59.90;;;;;;5046906;28;19932;-61
2023/06/21 08:17:53;;;;;;;;;;;21.70;59.90;;;;;;5070639;28;19932;-62
2023/06/21 08:20:20;;;;;;;;;;;21.70;59.90;;;;;;5042712;28;19928;-62
2023/06/21 08:22:48;;;;;;;;;;;21.70;59.90;;;;;;5041483;28;19921;-62
2023/06/21 08:25:15;;;;;;;;;;;21.70;59.60;;;;;;5042521;28;19954;-62
2023/06/21 08:27:42;;;;;;;;;;;21.70;60.00;;;;;;5045538;28;19928;-61
2023/06/21 08:30:10;;;;;;;;;;;21.70;59.60;;;;;;5038538;28;19928;-61
2023/06/21 08:32:37;;;;;;;;;;;21.70;60.10;;;;;;5042406;28;19929;-62
2023/06/21 08:35:06;;;;;;;;;;;21.70;59.90;;;;;;5042830;28;19928;-62
2023/06/21 08:37:32;;;;;;;;;;;21.70;59.80;;;;;;5048430;28;20013;-61
2023/06/21 08:39:59;;;;;;;;;;;21.70;59.60;;;;;;5039866;28;20171;-62
2023/06/21 08:42:26;;;;;;;;;;;21.70;59.90;;;;;;5041467;28;19987;-61
2023/06/21 08:44:54;;;;;;;;;;;21.70;59.80;;;;;;5042620;28;19964;-61
2023/06/21 08:47:28;;;;;;;;;;;21.70;59.70;;;;;;5044642;28;19924;-61
2023/06/21 08:49:57;;;;;;;;;;;21.70;59.80;;;;;;5043799;28;20293;-60
2023/06/21 08:52:24;;;;;;;;;;;21.70;59.90;;;;;;5048136;28;19948;-60
2023/06/21 08:54:57;;;;;;;;;;;21.70;59.60;;;;;;5047789;28;19952;-60
2023/06/21 08:57:24;;;;;;;;;;;21.70;59.20;;;;;;5045164;28;19929;-61
2023/06/21 09:00:03;;;;;;;;;;;21.60;59.70;;;;;;5046390;28;19928;-61
2023/06/21 09:02:52;;;;;;;;;;;21.60;59.50;;;;;;5041283;28;19929;-60
2023/06/21 09:05:25;;;;;;;;;;;21.60;59.20;;;;;;5068504;28;19925;-62
2023/06/21 09:07:53;;;;;;;;;;;21.60;59.60;;;;;;5044977;28;19920;-61
2023/06/21 09:10:21;;;;;;;;;;;21.60;59.60;;;;;;5045204;28;19955;-61
2023/06/21 09:12:51;;;;;;;;;;;21.60;59.30;;;;;;5048396;28;20327;-63
2023/06/21 09:15:18;;;;;;;;;;;21.50;59.60;;;;;;5044022;28;20688;-62
2023/06/21 09:17:46;;;;;;;;;;;21.50;59.10;;;;;;5044809;28;19921;-62
2023/06/21 09:20:13;;;;;;;;;;;21.40;59.80;;;;;;5042574;28;20032;-61
2023/06/21 09:22:42;;;;;;;;;;;21.40;59.90;;;;;;5043754;28;19925;-61
2023/06/21 09:25:09;;;;;;;;;;;21.40;59.60;;;;;;5042443;28;19929;-61
2023/06/21 09:27:39;;;;;;;;;;;21.40;59.90;;;;;;5045814;28;20343;-62
2023/06/21 09:30:06;;;;;;;;;;;21.40;59.60;;;;;;5042361;28;20368;-61
2023/06/21 09:32:53;;;;;;;;;;;21.40;59.50;;;;;;5034094;28;20396;-61
2023/06/21 09:35:20;;;;;;;;;;;21.30;59.50;;;;;;5039897;28;19932;-61
2023/06/21 09:37:47;;;;;;;;;;;21.30;60.30;;;;;;5042562;28;21125;-61
2023/06/21 09:40:15;;;;;;;;;;;21.30;60.30;;;;;;5040928;28;20379;-61
2023/06/21 09:42:44;;;;;;;;;;;21.40;59.60;;;;;;5037425;28;19932;-62
2023/06/21 09:45:12;;;;;;;;;;;21.30;60.10;;;;;;5040674;28;19921;-61
2023/06/21 09:47:40;;;;;;;;;;;21.30;59.70;;;;;;5039015;28;20341;-61
2023/06/21 09:50:08;;;;;;;;;;;21.30;59.80;;;;;;5041243;28;19931;-62
2023/06/21 09:52:36;;;;;;;;;;;21.30;60.80;;;;;;5044847;28;19925;-62
2023/06/21 09:55:03;;;;;;;;;;;21.30;60.40;;;;;;5043932;28;19921;-62
2023/06/21 09:57:31;;;;;;;;;;;21.30;60.20;;;;;;5040523;28;19948;-63
2023/06/21 09:59:59;;;;;;;;;;;21.30;59.90;;;;;;5039759;28;19932;-62
2023/06/21 10:02:27;;;;;;;;;;;21.30;59.70;;;;;;5047156;28;19960;-61
2023/06/21 10:04:54;;;;;;;;;;;21.30;59.80;;;;;;5048736;28;20004;-62
2023/06/21 10:07:22;;;;;;;;;;;21.30;59.20;;;;;;5049276;28;19975;-62
2023/06/21 10:09:49;;;;;;;;;;;21.30;59.00;;;;;;5046085;28;19929;-62
2023/06/21 10:12:16;;;;;;;;;;;21.20;58.90;;;;;;5046626;28;19983;-62
2023/06/21 10:14:44;;;;;;;;;;;21.20;58.90;;;;;;5047521;28;19968;-61
2023/06/21 10:17:11;;;;;;;;;;;21.10;59.00;;;;;;5045698;28;20424;-61
2023/06/21 10:19:40;;;;;;;;;;;21.10;59.30;;;;;;5043877;28;20418;-61
2023/06/21 10:22:11;;;;;;;;;;;21.00;59.20;;;;;;5046677;28;20399;-61
2023/06/21 10:24:51;;;;;;;;;;;21.00;59.40;;;;;;5046265;28;20344;-61
2023/06/21 10:27:19;;;;;;;;;;;21.00;59.30;;;;;;5046973;28;19925;-62
2023/06/21 10:29:56;;;;;;;;;;;21.00;59.90;;;;;;5047345;28;19920;-62
2023/06/21 10:32:24;;;;;;;;;;;21.00;59.00;;;;;;5046874;28;20023;-61
2023/06/21 10:35:04;;;;;;;;;;;21.00;60.00;;;;;;5054433;28;19935;-61
2023/06/21 10:37:49;;;;;;;;;;;21.00;59.60;;;;;;5046273;28;19974;-61
2023/06/21 10:40:17;;;;;;;;;;;21.10;59.70;;;;;;5044402;28;19920;-62
2023/06/21 10:42:45;;;;;;;;;;;21.10;59.40;;;;;;5052279;28;19958;-62
2023/06/21 10:45:13;;;;;;;;;;;21.10;59.90;;;;;;5049964;28;20538;-62
2023/06/21 10:47:40;;;;;;;;;;;21.10;59.50;;;;;;5051373;28;19925;-62
2023/06/21 10:50:08;;;;;;;;;;;21.10;60.20;;;;;;5043476;28;19935;-62
2023/06/21 10:52:37;;;;;;;;;;;21.20;59.50;;;;;;5043455;28;20381;-62
2023/06/21 10:55:04;;;;;;;;;;;21.20;60.00;;;;;;5044659;28;20276;-60
2023/06/21 10:57:34;;;;;;;;;;;21.20;60.30;;;;;;5050590;28;19928;-60
2023/06/21 11:00:03;;;;;;;;;;;21.20;60.50;;;;;;5044927;28;19936;-60
2023/06/21 11:02:30;;;;;;;;;;;21.20;60.50;;;;;;5045251;28;20026;-58
2023/06/21 11:05:15;;;;;;;;;;;21.20;61.00;;;;;;5046460;28;19951;-61
2023/06/21 11:07:57;;;;;;;;;;;21.20;62.30;;;;;;5047793;28;19925;-62
2023/06/21 11:10:42;;;;;;;;;;;21.30;62.70;;;;;;5049434;28;19982;-62
2023/06/21 11:13:09;;;;;;;;;;;21.40;62.10;;;;;;5050551;28;19982;-61
2023/06/21 11:15:40;;;;;;;;;;;21.50;62.30;;;;;;5048780;28;19929;-61
2023/06/21 11:18:09;;;;;;;;;;;21.50;62.00;;;;;;5049788;28;19920;-62
2023/06/21 11:20:47;;;;;;;;;;;21.60;61.50;;;;;;5047827;28;19986;-61
2023/06/21 11:23:16;;;;;;;;;;;21.60;61.80;;;;;;5048245;28;19956;-61
2023/06/21 11:25:51;;;;;;;;;;;21.70;61.80;;;;;;5046281;28;19952;-62
2023/06/21 11:28:26;;;;;;;;;;;21.70;61.60;;;;;;5046849;28;19921;-61
2023/06/21 11:31:07;;;;;;;;;;;21.80;61.80;;;;;;5048522;28;19959;-62
2023/06/21 11:33:45;;;;;;;;;;;21.90;61.40;;;;;;5050962;28;19943;-60
2023/06/21 11:36:13;;;;;;;;;;;21.90;61.10;;;;;;5044727;28;21076;-61
2023/06/21 11:38:48;;;;;;;;;;;21.90;61.00;;;;;;5046201;28;20341;-61
2023/06/21 11:41:40;;;;;;;;;;;22.00;61.10;;;;;;5045214;28;19932;-61
2023/06/21 11:44:08;;;;;;;;;;;22.00;60.80;;;;;;5047071;28;19924;-61
2023/06/21 11:46:36;;;;;;;;;;;22.00;61.00;;;;;;5044678;28;19921;-61
2023/06/21 11:49:03;;;;;;;;;;;22.00;60.80;;;;;;5043499;28;19940;-60
2023/06/21 11:51:34;;;;;;;;;;;22.00;61.00;;;;;;5047923;28;19948;-61
2023/06/21 11:54:01;;;;;;;;;;;22.00;61.00;;;;;;5045094;28;19929;-61
2023/06/21 11:56:29;;;;;;;;;;;22.00;60.60;;;;;;5042073;28;20309;-62
2023/06/21 11:58:56;;;;;;;;;;;22.00;60.70;;;;;;5047710;28;19924;-61
2023/06/21 12:01:24;;;;;;;;;;;22.00;61.10;;;;;;5046027;28;20441;-61
2023/06/21 12:03:58;;;;;;;;;;;22.00;61.00;;;;;;5047927;28;19932;-62
2023/06/21 12:06:25;;;;;;;;;;;22.10;60.90;;;;;;5043805;28;19929;-61
2023/06/21 12:08:56;;;;;;;;;;;22.10;60.80;;;;;;5054546;28;19960;-61
2023/06/21 12:11:27;;;;;;;;;;;22.20;61.00;;;;;;5050038;28;19928;-60
2023/06/21 12:13:54;;;;;;;;;;;22.20;61.10;;;;;;5048580;28;19933;-61
2023/06/21 12:16:24;;;;;;;;;;;22.20;61.10;;;;;;5075068;28;19928;-60
2023/06/21 12:18:51;;;;;;;;;;;22.20;61.00;;;;;;5043221;28;20015;-60
2023/06/21 12:21:18;;;;;;;;;;;22.20;60.90;;;;;;5049912;28;19920;-61
2023/06/21 12:23:45;;;;;;;;;;;22.20;61.10;;;;;;5044179;28;19925;-61
2023/06/21 12:26:13;;;;;;;;;;;22.30;61.40;;;;;;5043277;28;19931;-61
2023/06/21 12:28:41;;;;;;;;;;;22.20;61.00;;;;;;5044854;28;19925;-61
2023/06/21 12:31:12;;;;;;;;;;;22.20;60.50;;;;;;5047831;28;19921;-62
2023/06/21 12:33:40;;;;;;;;;;;22.20;60.50;;;;;;5042416;28;19951;-63
2023/06/21 12:36:19;;;;;;;;;;;22.30;60.40;;;;;;5044997;28;20110;-61
2023/06/21 12:38:51;;;;;;;;;;;22.20;60.70;;;;;;5042327;28;20259;-61
2023/06/21 12:41:19;;;;;;;;;;;22.20;60.70;;;;;;5042510;28;20007;-61
2023/06/21 12:43:48;;;;;;;;;;;22.20;60.60;;;;;;5045403;28;20565;-60
2023/06/21 12:46:15;;;;;;;;;;;22.20;60.90;;;;;;5044182;28;19978;-61
2023/06/21 12:48:44;;;;;;;;;;;22.20;60.90;;;;;;5046194;28;19929;-61
2023/06/21 12:51:18;;;;;;;;;;;22.20;61.10;;;;;;5040475;28;20377;-61
2023/06/21 12:53:46;;;;;;;;;;;22.20;61.10;;;;;;5045113;28;19975;-62
2023/06/21 12:56:12;;;;;;;;;;;22.20;60.90;;;;;;5043123;28;20377;-61
2023/06/21 12:58:40;;;;;;;;;;;22.20;60.80;;;;;;5043149;28;19924;-60
2023/06/21 13:01:07;;;;;;;;;;;22.20;60.60;;;;;;5043734;28;19929;-60
2023/06/21 13:03:35;;;;;;;;;;;22.20;61.00;;;;;;5040626;28;20019;-59
2023/06/21 13:06:04;;;;;;;;;;;22.20;60.20;;;;;;5047809;28;19929;-61
2023/06/21 13:08:32;;;;;;;;;;;22.20;60.40;;;;;;5047341;28;20368;-61
2023/06/21 13:11:01;;;;;;;;;;;22.20;60.10;;;;;;5048368;28;19924;-61
2023/06/21 13:13:28;;;;;;;;;;;22.20;60.00;;;;;;5048238;28;19920;-61
2023/06/21 13:15:58;;;;;;;;;;;22.20;59.90;;;;;;5041613;28;20510;-61
2023/06/21 13:18:27;;;;;;;;;;;22.20;59.70;;;;;;5042759;28;19924;-62
2023/06/21 13:20:58;;;;;;;;;;;22.10;59.80;;;;;;5047135;28;19982;-61
2023/06/21 13:23:25;;;;;;;;;;;22.10;59.70;;;;;;5045003;28;19927;-61
2023/06/21 13:25:52;;;;;;;;;;;22.10;59.60;;;;;;5045161;28;19929;-61
2023/06/21 13:28:23;;;;;;;;;;;22.00;59.40;;;;;;5046653;28;19920;-61
2023/06/21 13:30:50;;;;;;;;;;;22.00;59.70;;;;;;5039901;28;19941;-61
2023/06/21 13:33:17;;;;;;;;;;;22.00;59.60;;;;;;5044436;28;19924;-61
2023/06/21 13:35:44;;;;;;;;;;;21.90;59.20;;;;;;5041358;28;20023;-61
2023/06/21 13:38:15;;;;;;;;;;;21.90;59.30;;;;;;5041469;28;20458;-62
2023/06/21 13:40:45;;;;;;;;;;;21.90;59.60;;;;;;5042205;28;19930;-62
2023/06/21 13:43:12;;;;;;;;;;;21.80;59.10;;;;;;5042862;28;19944;-61
2023/06/21 13:45:39;;;;;;;;;;;21.80;59.20;;;;;;5041478;28;19968;-61
2023/06/21 13:48:08;;;;;;;;;;;21.80;59.50;;;;;;5041408;28;20381;-61
2023/06/21 13:50:35;;;;;;;;;;;21.80;59.10;;;;;;5041446;28;19935;-61
2023/06/21 13:53:02;;;;;;;;;;;21.70;59.70;;;;;;5043815;28;19935;-61
2023/06/21 13:55:29;;;;;;;;;;;21.70;59.40;;;;;;5046182;28;19960;-61
2023/06/21 13:57:56;;;;;;;;;;;21.70;59.20;;;;;;5044864;28;19972;-61
2023/06/21 14:00:23;;;;;;;;;;;21.70;59.70;;;;;;5045823;28;19935;-61
2023/06/21 14:02:51;;;;;;;;;;;21.70;59.90;;;;;;5048845;28;19921;-62
2023/06/21 14:05:20;;;;;;;;;;;21.80;66.50;;;;;;5049684;28;19925;-61
2023/06/21 14:07:47;;;;;;;;;;;22.10;70.30;;;;;;5047571;28;19988;-61
2023/06/21 14:10:14;;;;;;;;;;;22.50;71.10;;;;;;5048203;28;19978;-62
2023/06/21 14:12:43;;;;;;;;;;;22.90;71.10;;;;;;5049287;28;20343;-62
2023/06/21 14:15:10;;;;;;;;;;;23.20;70.80;;;;;;5055704;28;19933;-62
2023/06/21 14:17:42;;;;;;;;;;;23.60;70.60;;;;;;5054437;28;19982;-62
2023/06/21 14:20:10;;;;;;;;;;;23.90;70.20;;;;;;5049876;28;20035;-61
2023/06/21 14:22:37;;;;;;;;;;;24.20;69.80;;;;;;5049368;28;19921;-61
2023/06/21 14:25:08;;;;;;;;;;;24.50;69.90;;;;;;5047348;28;19931;-61